Terminal Aerodrome Forecast
Issued by NWS

Home | Current Version | Previous Version | Text Only | Print | Product List | Glossary On
Versions: 1 2 3 4 5 6 7 8 9 10 11 12 13
000
FTUS45 KREV 251720
TAFTRK
TAF
KTRK 251720Z 2518/2618 VRB02KT P6SM BKN200
     FM252000 23007KT P6SM SCT070
     FM260300 VRB03KT P6SM SCT180
     FM261100 VRB01KT P6SM VCFG SCT250
     FM261400 VRB03KT P6SM SCT250=

USA.gov is the U.S. government's official web portal to all federal, state and local government web resources and services.